sensor_id;sensor_type;location;lat;lon;timestamp;pressure;altitude;pressure_sealevel;temperature;humidity
67517;BME280;68821;59.134;37.894;2023-06-14T00:02:10;100507.03;;;16.31;51.23
67517;BME280;68821;59.134;37.894;2023-06-14T00:04:36;100508.72;;;16.32;51.51
67517;BME280;68821;59.134;37.894;2023-06-14T00:07:03;100518.22;;;16.34;51.46
67517;BME280;68821;59.134;37.894;2023-06-14T00:09:29;100509.59;;;16.37;51.12
67517;BME280;68821;59.134;37.894;2023-06-14T00:11:55;100510.41;;;16.40;51.38
67517;BME280;68821;59.134;37.894;2023-06-14T00:14:21;100506.06;;;16.44;51.08
67517;BME280;68821;59.134;37.894;2023-06-14T00:16:47;100507.78;;;16.46;51.22
67517;BME280;68821;59.134;37.894;2023-06-14T00:19:13;100510.38;;;16.51;50.88
67517;BME280;68821;59.134;37.894;2023-06-14T00:21:40;100509.50;;;16.54;50.89
67517;BME280;68821;59.134;37.894;2023-06-14T00:24:07;100515.53;;;16.56;50.72
67517;BME280;68821;59.134;37.894;2023-06-14T00:26:33;100520.72;;;16.57;50.53
67517;BME280;68821;59.134;37.894;2023-06-14T00:28:59;100513.78;;;16.59;50.53
67517;BME280;68821;59.134;37.894;2023-06-14T00:31:25;100514.66;;;16.60;50.26
67517;BME280;68821;59.134;37.894;2023-06-14T00:33:51;100516.34;;;16.64;50.32
67517;BME280;68821;59.134;37.894;2023-06-14T00:36:17;100508.53;;;16.68;50.15
67517;BME280;68821;59.134;37.894;2023-06-14T00:38:43;100506.78;;;16.72;49.89
67517;BME280;68821;59.134;37.894;2023-06-14T00:41:09;100510.22;;;16.76;49.75
67517;BME280;68821;59.134;37.894;2023-06-14T00:43:35;100515.44;;;16.76;49.45
67517;BME280;68821;59.134;37.894;2023-06-14T00:46:01;100510.19;;;16.77;49.46
67517;BME280;68821;59.134;37.894;2023-06-14T00:48:28;100519.72;;;16.78;49.38
67517;BME280;68821;59.134;37.894;2023-06-14T00:50:55;100515.41;;;16.82;49.25
67517;BME280;68821;59.134;37.894;2023-06-14T00:53:21;100509.34;;;16.83;49.25
67517;BME280;68821;59.134;37.894;2023-06-14T00:55:48;100514.53;;;16.83;48.95
67517;BME280;68821;59.134;37.894;2023-06-14T00:58:14;100512.81;;;16.82;48.86
67517;BME280;68821;59.134;37.894;2023-06-14T01:00:41;100507.59;;;16.83;48.46
67517;BME280;68821;59.134;37.894;2023-06-14T01:03:07;100500.66;;;16.79;48.40
67517;BME280;68821;59.134;37.894;2023-06-14T01:05:33;100506.75;;;16.80;48.41
67517;BME280;68821;59.134;37.894;2023-06-14T01:08:20;100503.28;;;16.78;48.50
67517;BME280;68821;59.134;37.894;2023-06-14T01:10:56;100504.19;;;16.74;48.44
67517;BME280;68821;59.134;37.894;2023-06-14T01:13:34;100499.00;;;16.69;48.21
67517;BME280;68821;59.134;37.894;2023-06-14T01:16:02;100494.72;;;16.63;47.98
67517;BME280;68821;59.134;37.894;2023-06-14T01:18:29;100499.06;;;16.58;47.78
67517;BME280;68821;59.134;37.894;2023-06-14T01:20:55;100497.41;;;16.51;47.99
67517;BME280;68821;59.134;37.894;2023-06-14T01:23:23;100497.41;;;16.48;47.84
67517;BME280;68821;59.134;37.894;2023-06-14T01:25:50;100487.91;;;16.42;47.74
67517;BME280;68821;59.134;37.894;2023-06-14T01:28:20;100498.28;;;16.44;47.65
67517;BME280;68821;59.134;37.894;2023-06-14T01:30:52;100492.25;;;16.40;47.68
67517;BME280;68821;59.134;37.894;2023-06-14T01:33:24;100497.47;;;16.39;47.54
67517;BME280;68821;59.134;37.894;2023-06-14T01:35:52;100489.69;;;16.37;47.53
67517;BME280;68821;59.134;37.894;2023-06-14T01:38:24;100488.81;;;16.34;47.75
67517;BME280;68821;59.134;37.894;2023-06-14T01:40:52;100491.44;;;16.29;47.81
67517;BME280;68821;59.134;37.894;2023-06-14T01:43:19;100483.66;;;16.29;47.48
67517;BME280;68821;59.134;37.894;2023-06-14T01:45:48;100493.16;;;16.33;47.59
67517;BME280;68821;59.134;37.894;2023-06-14T01:48:17;100488.81;;;16.32;47.62
67517;BME280;68821;59.134;37.894;2023-06-14T01:50:43;100485.38;;;16.32;47.48
67517;BME280;68821;59.134;37.894;2023-06-14T01:53:10;100490.56;;;16.33;47.62
67517;BME280;68821;59.134;37.894;2023-06-14T01:55:36;100490.56;;;16.35;47.83
67517;BME280;68821;59.134;37.894;2023-06-14T01:58:04;100493.13;;;16.36;47.50
67517;BME280;68821;59.134;37.894;2023-06-14T02:00:30;100489.69;;;16.39;47.67
67517;BME280;68821;59.134;37.894;2023-06-14T02:02:56;100483.59;;;16.38;47.74
67517;BME280;68821;59.134;37.894;2023-06-14T02:05:23;100491.38;;;16.40;47.70
67517;BME280;68821;59.134;37.894;2023-06-14T02:07:49;100496.53;;;16.44;47.88
67517;BME280;68821;59.134;37.894;2023-06-14T02:10:17;100495.69;;;16.45;47.76
67517;BME280;68821;59.134;37.894;2023-06-14T02:12:43;100494.81;;;16.48;47.91
67517;BME280;68821;59.134;37.894;2023-06-14T02:15:10;100493.06;;;16.52;47.79
67517;BME280;68821;59.134;37.894;2023-06-14T02:17:46;100484.38;;;16.56;47.85
67517;BME280;68821;59.134;37.894;2023-06-14T02:20:15;100482.59;;;16.61;47.80
67517;BME280;68821;59.134;37.894;2023-06-14T02:22:41;100477.41;;;16.64;47.66
67517;BME280;68821;59.134;37.894;2023-06-14T02:25:08;100478.22;;;16.69;47.60
67517;BME280;68821;59.134;37.894;2023-06-14T02:27:34;100472.16;;;16.73;47.79
67517;BME280;68821;59.134;37.894;2023-06-14T02:30:01;100473.84;;;16.80;47.65
67517;BME280;68821;59.134;37.894;2023-06-14T02:32:27;100482.50;;;16.84;47.65
67517;BME280;68821;59.134;37.894;2023-06-14T02:34:54;100471.25;;;16.83;47.59
67517;BME280;68821;59.134;37.894;2023-06-14T02:37:20;100485.06;;;16.87;47.58
67517;BME280;68821;59.134;37.894;2023-06-14T02:39:46;100486.81;;;16.85;47.72
67517;BME280;68821;59.134;37.894;2023-06-14T02:42:12;100479.91;;;16.82;47.56
67517;BME280;68821;59.134;37.894;2023-06-14T02:44:38;100483.38;;;16.84;47.77
67517;BME280;68821;59.134;37.894;2023-06-14T02:47:04;100476.44;;;16.86;47.96
67517;BME280;68821;59.134;37.894;2023-06-14T02:49:31;100476.38;;;16.89;47.89
67517;BME280;68821;59.134;37.894;2023-06-14T02:51:57;100480.69;;;16.94;47.82
67517;BME280;68821;59.134;37.894;2023-06-14T02:54:23;100476.34;;;16.99;47.96
67517;BME280;68821;59.134;37.894;2023-06-14T02:56:49;100477.19;;;17.02;47.87
67517;BME280;68821;59.134;37.894;2023-06-14T02:59:15;100484.88;;;17.10;48.07
67517;BME280;68821;59.134;37.894;2023-06-14T03:01:42;100483.97;;;17.19;47.93
67517;BME280;68821;59.134;37.894;2023-06-14T03:04:08;100486.47;;;17.29;47.92
67517;BME280;68821;59.134;37.894;2023-06-14T03:06:35;100489.81;;;17.42;47.73
67517;BME280;68821;59.134;37.894;2023-06-14T03:09:03;100489.69;;;17.55;47.65
67517;BME280;68821;59.134;37.894;2023-06-14T03:11:32;100491.31;;;17.66;47.39
67517;BME280;68821;59.134;37.894;2023-06-14T03:13:58;100490.34;;;17.75;47.24
67517;BME280;68821;59.134;37.894;2023-06-14T03:16:24;100487.69;;;17.80;47.02
67517;BME280;68821;59.134;37.894;2023-06-14T03:18:51;100480.75;;;17.83;46.91
67517;BME280;68821;59.134;37.894;2023-06-14T03:21:18;100487.69;;;17.84;46.52
67517;BME280;68821;59.134;37.894;2023-06-14T03:23:45;100497.13;;;17.90;46.51
67517;BME280;68821;59.134;37.894;2023-06-14T03:26:11;100504.91;;;17.95;46.25
67517;BME280;68821;59.134;37.894;2023-06-14T03:28:41;100492.69;;;18.00;46.14
67517;BME280;68821;59.134;37.894;2023-06-14T03:31:07;100498.75;;;18.02;46.05
67517;BME280;68821;59.134;37.894;2023-06-14T03:33:34;100504.78;;;18.04;45.82
67517;BME280;68821;59.134;37.894;2023-06-14T03:36:02;100503.91;;;18.05;46.15
67517;BME280;68821;59.134;37.894;2023-06-14T03:38:29;100496.06;;;18.08;46.40
67517;BME280;68821;59.134;37.894;2023-06-14T03:40:55;100492.56;;;18.10;46.19
67517;BME280;68821;59.134;37.894;2023-06-14T03:43:21;100494.28;;;18.13;46.05
67517;BME280;68821;59.134;37.894;2023-06-14T03:45:47;100487.34;;;18.10;46.45
67517;BME280;68821;59.134;37.894;2023-06-14T03:48:13;100495.16;;;18.12;46.35
67517;BME280;68821;59.134;37.894;2023-06-14T03:50:39;100491.63;;;18.16;46.31
67517;BME280;68821;59.134;37.894;2023-06-14T03:53:06;100488.13;;;18.19;46.40
67517;BME280;68821;59.134;37.894;2023-06-14T03:55:32;100479.44;;;18.20;46.54
67517;BME280;68821;59.134;37.894;2023-06-14T03:57:59;100478.63;;;18.16;46.41
67517;BME280;68821;59.134;37.894;2023-06-14T04:00:25;100483.91;;;18.10;46.23
67517;BME280;68821;59.134;37.894;2023-06-14T04:02:52;100482.19;;;18.07;46.36
67517;BME280;68821;59.134;37.894;2023-06-14T04:05:18;100479.63;;;18.04;46.19
67517;BME280;68821;59.134;37.894;2023-06-14T04:07:47;100492.56;;;18.10;46.66
67517;BME280;68821;59.134;37.894;2023-06-14T04:10:15;100482.16;;;18.10;46.58
67517;BME280;68821;59.134;37.894;2023-06-14T04:12:42;100480.44;;;18.09;46.55
67517;BME280;68821;59.134;37.894;2023-06-14T04:15:08;100483.06;;;18.08;46.54
67517;BME280;68821;59.134;37.894;2023-06-14T04:17:36;100480.38;;;18.13;46.51
67517;BME280;68821;59.134;37.894;2023-06-14T04:20:03;100469.88;;;18.20;46.94
67517;BME280;68821;59.134;37.894;2023-06-14T04:22:32;100469.78;;;18.29;47.11
67517;BME280;68821;59.134;37.894;2023-06-14T04:24:59;100470.53;;;18.38;46.70
67517;BME280;68821;59.134;37.894;2023-06-14T04:27:28;100465.19;;;18.48;46.84
67517;BME280;68821;59.134;37.894;2023-06-14T04:29:57;100464.16;;;18.59;46.90
67517;BME280;68821;59.134;37.894;2023-06-14T04:32:26;100460.53;;;18.69;46.41
67517;BME280;68821;59.134;37.894;2023-06-14T04:34:53;100467.34;;;18.81;46.48
67517;BME280;68821;59.134;37.894;2023-06-14T04:37:21;100466.34;;;18.86;46.60
67517;BME280;68821;59.134;37.894;2023-06-14T04:39:48;100466.25;;;18.93;46.25
67517;BME280;68821;59.134;37.894;2023-06-14T04:42:14;100460.06;;;19.01;46.51
67517;BME280;68821;59.134;37.894;2023-06-14T04:44:42;100460.81;;;19.06;46.59
67517;BME280;68821;59.134;37.894;2023-06-14T04:47:10;100464.13;;;19.18;46.55
67517;BME280;68821;59.134;37.894;2023-06-14T04:49:38;100464.03;;;19.22;46.77
67517;BME280;68821;59.134;37.894;2023-06-14T04:52:06;100463.03;;;19.29;46.52
67517;BME280;68821;59.134;37.894;2023-06-14T04:54:33;100471.66;;;19.35;46.55
67517;BME280;68821;59.134;37.894;2023-06-14T04:57:04;100462.84;;;19.40;46.78
67517;BME280;68821;59.134;37.894;2023-06-14T04:59:31;100466.19;;;19.48;46.85
67517;BME280;68821;59.134;37.894;2023-06-14T05:01:59;100469.56;;;19.54;46.87
67517;BME280;68821;59.134;37.894;2023-06-14T05:04:25;100462.53;;;19.57;46.89
67517;BME280;68821;59.134;37.894;2023-06-14T05:06:54;100466.81;;;19.61;47.04
67517;BME280;68821;59.134;37.894;2023-06-14T05:09:20;100464.94;;;19.71;46.89
67517;BME280;68821;59.134;37.894;2023-06-14T05:11:46;100467.41;;;19.77;47.30
67517;BME280;68821;59.134;37.894;2023-06-14T05:14:13;100466.41;;;19.83;47.52
67517;BME280;68821;59.134;37.894;2023-06-14T05:16:40;100473.25;;;19.90;47.56
67517;BME280;68821;59.134;37.894;2023-06-14T05:19:06;100467.00;;;19.97;47.46
67517;BME280;68821;59.134;37.894;2023-06-14T05:21:33;100464.38;;;19.97;47.63
67517;BME280;68821;59.134;37.894;2023-06-14T05:24:01;100473.88;;;20.01;47.84
67517;BME280;68821;59.134;37.894;2023-06-14T05:26:27;100467.69;;;20.05;47.80
67517;BME280;68821;59.134;37.894;2023-06-14T05:28:57;100464.94;;;20.12;48.01
67517;BME280;68821;59.134;37.894;2023-06-14T05:31:27;100471.81;;;20.16;47.81
67517;BME280;68821;59.134;37.894;2023-06-14T05:33:53;100463.94;;;20.20;47.85
67517;BME280;68821;59.134;37.894;2023-06-14T05:36:20;100466.44;;;20.23;47.95
67517;BME280;68821;59.134;37.894;2023-06-14T05:38:49;100464.66;;;20.27;47.95
67517;BME280;68821;59.134;37.894;2023-06-14T05:41:17;100466.28;;;20.33;47.86
67517;BME280;68821;59.134;37.894;2023-06-14T05:43:43;100463.53;;;20.39;47.82
67517;BME280;68821;59.134;37.894;2023-06-14T05:46:09;100464.22;;;20.47;47.73
67517;BME280;68821;59.134;37.894;2023-06-14T05:48:35;100466.56;;;20.58;47.65
67517;BME280;68821;59.134;37.894;2023-06-14T05:51:02;100463.81;;;20.65;47.38
67517;BME280;68821;59.134;37.894;2023-06-14T05:53:28;100467.00;;;20.78;47.32
67517;BME280;68821;59.134;37.894;2023-06-14T05:55:54;100461.47;;;20.90;47.00
67517;BME280;68821;59.134;37.894;2023-06-14T05:58:21;100459.53;;;20.99;47.06
67517;BME280;68821;59.134;37.894;2023-06-14T06:00:48;100469.56;;;21.16;47.02
67517;BME280;68821;59.134;37.894;2023-06-14T06:03:14;100464.09;;;21.25;46.67
67517;BME280;68821;59.134;37.894;2023-06-14T06:05:40;100467.16;;;21.42;46.51
67517;BME280;68821;59.134;37.894;2023-06-14T06:08:06;100467.72;;;21.54;46.52
67517;BME280;68821;59.134;37.894;2023-06-14T06:10:32;100474.38;;;21.65;45.73
67517;BME280;68821;59.134;37.894;2023-06-14T06:12:58;100475.91;;;21.74;45.73
67517;BME280;68821;59.134;37.894;2023-06-14T06:15:24;100477.28;;;21.86;45.88
67517;BME280;68821;59.134;37.894;2023-06-14T06:17:50;100478.81;;;21.95;45.42
67517;BME280;68821;59.134;37.894;2023-06-14T06:20:17;100477.69;;;22.03;44.83
67517;BME280;68821;59.134;37.894;2023-06-14T06:22:43;100480.97;;;22.10;44.77
67517;BME280;68821;59.134;37.894;2023-06-14T06:25:09;100479.00;;;22.18;44.70
67517;BME280;68821;59.134;37.894;2023-06-14T06:27:35;100477.81;;;22.30;44.54
67517;BME280;68821;59.134;37.894;2023-06-14T06:30:03;100481.00;;;22.40;44.05
67517;BME280;68821;59.134;37.894;2023-06-14T06:32:29;100483.44;;;22.46;43.22
67517;BME280;68821;59.134;37.894;2023-06-14T06:34:55;100474.47;;;22.53;42.79
67517;BME280;68821;59.134;37.894;2023-06-14T06:37:21;100480.25;;;22.64;42.65
67517;BME280;68821;59.134;37.894;2023-06-14T06:39:47;100482.56;;;22.74;42.15
67517;BME280;68821;59.134;37.894;2023-06-14T06:42:16;100488.41;;;22.82;42.09
67517;BME280;68821;59.134;37.894;2023-06-14T06:44:42;100488.25;;;22.86;42.06
67517;BME280;68821;59.134;37.894;2023-06-14T06:47:08;100491.66;;;22.90;41.84
67517;BME280;68821;59.134;37.894;2023-06-14T06:49:35;100492.56;;;22.89;41.61
67517;BME280;68821;59.134;37.894;2023-06-14T06:52:03;100487.38;;;22.87;41.08
67517;BME280;68821;59.134;37.894;2023-06-14T06:54:31;100493.47;;;22.88;40.63
67517;BME280;68821;59.134;37.894;2023-06-14T06:56:57;100497.00;;;22.87;40.13
67517;BME280;68821;59.134;37.894;2023-06-14T06:59:24;100485.72;;;22.85;40.08
67517;BME280;68821;59.134;37.894;2023-06-14T07:01:50;100482.97;;;22.88;40.63
67517;BME280;68821;59.134;37.894;2023-06-14T07:04:16;100478.50;;;22.92;39.99
67517;BME280;68821;59.134;37.894;2023-06-14T07:06:43;100476.66;;;22.95;39.43
67517;BME280;68821;59.134;37.894;2023-06-14T07:09:09;100475.69;;;22.98;39.13
67517;BME280;68821;59.134;37.894;2023-06-14T07:11:39;100476.31;;;23.06;38.88
67517;BME280;68821;59.134;37.894;2023-06-14T07:14:05;100471.88;;;23.08;38.47
67517;BME280;68821;59.134;37.894;2023-06-14T07:16:32;100468.19;;;23.14;38.46
67517;BME280;68821;59.134;37.894;2023-06-14T07:18:58;100482.00;;;23.19;38.81
67517;BME280;68821;59.134;37.894;2023-06-14T07:21:24;100482.84;;;23.19;38.27
67517;BME280;68821;59.134;37.894;2023-06-14T07:23:54;100477.75;;;23.15;38.52
67517;BME280;68821;59.134;37.894;2023-06-14T07:26:21;100485.63;;;23.15;37.96
67517;BME280;68821;59.134;37.894;2023-06-14T07:28:47;100483.94;;;23.14;37.60
67517;BME280;68821;59.134;37.894;2023-06-14T07:31:15;100486.47;;;23.15;37.16
67517;BME280;68821;59.134;37.894;2023-06-14T07:33:43;100485.47;;;23.19;37.22
67517;BME280;68821;59.134;37.894;2023-06-14T07:36:09;100488.78;;;23.26;37.31
67517;BME280;68821;59.134;37.894;2023-06-14T07:38:35;100484.19;;;23.31;36.78
67517;BME280;68821;59.134;37.894;2023-06-14T07:41:03;100479.75;;;23.33;36.67
67517;BME280;68821;59.134;37.894;2023-06-14T07:43:29;100483.81;;;23.42;36.71
67517;BME280;68821;59.134;37.894;2023-06-14T07:45:55;100474.84;;;23.49;36.13
67517;BME280;68821;59.134;37.894;2023-06-14T07:48:22;100471.06;;;23.56;36.36
67517;BME280;68821;59.134;37.894;2023-06-14T07:50:48;100477.84;;;23.63;35.77
67517;BME280;68821;59.134;37.894;2023-06-14T07:53:14;100480.50;;;23.62;35.46
67517;BME280;68821;59.134;37.894;2023-06-14T07:55:41;100482.25;;;23.63;35.21
67517;BME280;68821;59.134;37.894;2023-06-14T07:58:09;100475.00;;;23.69;34.72
67517;BME280;68821;59.134;37.894;2023-06-14T08:00:36;100485.19;;;23.79;34.35
67517;BME280;68821;59.134;37.894;2023-06-14T08:03:02;100480.50;;;23.87;34.03
67517;BME280;68821;59.134;37.894;2023-06-14T08:05:28;100479.38;;;23.94;34.10
67517;BME280;68821;59.134;37.894;2023-06-14T08:07:55;100486.66;;;24.09;33.46
67517;BME280;68821;59.134;37.894;2023-06-14T08:10:22;100480.25;;;24.18;34.32
67517;BME280;68821;59.134;37.894;2023-06-14T08:12:48;100476.41;;;24.27;33.52
67517;BME280;68821;59.134;37.894;2023-06-14T08:15:16;100479.63;;;24.34;34.05
67517;BME280;68821;59.134;37.894;2023-06-14T08:17:43;100489.66;;;24.46;33.80
67517;BME280;68821;59.134;37.894;2023-06-14T08:20:10;100482.38;;;24.54;33.67
67517;BME280;68821;59.134;37.894;2023-06-14T08:22:36;100489.41;;;24.54;33.01
67517;BME280;68821;59.134;37.894;2023-06-14T08:25:03;100481.91;;;24.43;32.49
67517;BME280;68821;59.134;37.894;2023-06-14T08:27:30;100487.22;;;24.41;32.53
67517;BME280;68821;59.134;37.894;2023-06-14T08:29:56;100481.53;;;24.54;32.63
67517;BME280;68821;59.134;37.894;2023-06-14T08:32:22;100487.75;;;24.73;32.48
67517;BME280;68821;59.134;37.894;2023-06-14T08:34:48;100479.25;;;24.88;32.24
67517;BME280;68821;59.134;37.894;2023-06-14T08:37:15;100473.06;;;24.89;32.01
67517;BME280;68821;59.134;37.894;2023-06-14T08:39:41;100471.81;;;24.78;31.75
67517;BME280;68821;59.134;37.894;2023-06-14T08:42:08;100475.84;;;24.64;32.19
67517;BME280;68821;59.134;37.894;2023-06-14T08:44:35;100479.06;;;24.49;32.30
67517;BME280;68821;59.134;37.894;2023-06-14T08:47:01;100473.53;;;24.33;32.21
67517;BME280;68821;59.134;37.894;2023-06-14T08:49:29;100473.31;;;24.16;32.58
67517;BME280;68821;59.134;37.894;2023-06-14T08:52:00;100467.56;;;24.06;32.45
67517;BME280;68821;59.134;37.894;2023-06-14T08:54:30;100479.53;;;24.13;32.58
67517;BME280;68821;59.134;37.894;2023-06-14T08:56:58;100473.81;;;24.25;32.25
67517;BME280;68821;59.134;37.894;2023-06-14T08:59:28;100464.06;;;24.29;32.14
67517;BME280;68821;59.134;37.894;2023-06-14T09:01:55;100472.31;;;24.42;32.08
67517;BME280;68821;59.134;37.894;2023-06-14T09:04:24;100465.75;;;24.54;31.81
67517;BME280;68821;59.134;37.894;2023-06-14T09:06:58;100467.94;;;24.64;31.59
67517;BME280;68821;59.134;37.894;2023-06-14T09:09:25;100463.03;;;24.77;31.60
67517;BME280;68821;59.134;37.894;2023-06-14T09:11:52;100452.75;;;24.93;31.46
67517;BME280;68821;59.134;37.894;2023-06-14T09:14:18;100456.44;;;25.09;31.13
67517;BME280;68821;59.134;37.894;2023-06-14T09:16:45;100456.94;;;25.19;31.08
67517;BME280;68821;59.134;37.894;2023-06-14T09:19:21;100466.16;;;25.29;30.67
67517;BME280;68821;59.134;37.894;2023-06-14T09:21:48;100452.69;;;25.37;30.22
67517;BME280;68821;59.134;37.894;2023-06-14T09:24:15;100454.06;;;25.46;29.99
67517;BME280;68821;59.134;37.894;2023-06-14T09:26:41;100447.59;;;25.53;30.25
67517;BME280;68821;59.134;37.894;2023-06-14T09:29:09;100447.13;;;25.64;30.34
67517;BME280;68821;59.134;37.894;2023-06-14T09:31:35;100444.56;;;25.81;30.20
67517;BME280;68821;59.134;37.894;2023-06-14T09:34:02;100441.19;;;25.98;29.91
67517;BME280;68821;59.134;37.894;2023-06-14T09:36:31;100442.69;;;26.23;29.96
67517;BME280;68821;59.134;37.894;2023-06-14T09:38:59;100438.19;;;26.44;29.65
67517;BME280;68821;59.134;37.894;2023-06-14T09:41:34;100442.09;;;26.54;29.06
67517;BME280;68821;59.134;37.894;2023-06-14T09:44:01;100442.94;;;26.55;29.92
67517;BME280;68821;59.134;37.894;2023-06-14T09:46:29;100445.91;;;26.66;29.51
67517;BME280;68821;59.134;37.894;2023-06-14T09:48:56;100421.66;;;26.77;29.49
67517;BME280;68821;59.134;37.894;2023-06-14T09:51:23;100445.94;;;26.83;29.67
67517;BME280;68821;59.134;37.894;2023-06-14T09:53:50;100434.06;;;26.92;29.19
67517;BME280;68821;59.134;37.894;2023-06-14T09:56:28;100424.47;;;26.91;29.56
67517;BME280;68821;59.134;37.894;2023-06-14T09:58:59;100435.63;;;26.96;29.37
67517;BME280;68821;59.134;37.894;2023-06-14T10:01:27;100433.31;;;26.90;29.32
67517;BME280;68821;59.134;37.894;2023-06-14T10:04:15;100431.19;;;26.97;29.17
67517;BME280;68821;59.134;37.894;2023-06-14T10:06:45;100437.19;;;27.18;28.67
67517;BME280;68821;59.134;37.894;2023-06-14T10:09:12;100436.03;;;27.41;28.70
67517;BME280;68821;59.134;37.894;2023-06-14T10:11:40;100420.13;;;27.58;28.07
67517;BME280;68821;59.134;37.894;2023-06-14T10:14:10;100424.34;;;27.78;27.82
67517;BME280;68821;59.134;37.894;2023-06-14T10:16:46;100422.78;;;27.92;27.71
67517;BME280;68821;59.134;37.894;2023-06-14T10:19:20;100414.06;;;28.05;27.91
67517;BME280;68821;59.134;37.894;2023-06-14T10:24:19;100407.25;;;28.17;27.33
67517;BME280;68821;59.134;37.894;2023-06-14T10:26:53;100408.28;;;28.31;27.35
67517;BME280;68821;59.134;37.894;2023-06-14T10:29:19;100407.22;;;28.49;27.72
67517;BME280;68821;59.134;37.894;2023-06-14T10:31:47;100409.06;;;28.79;27.19
67517;BME280;68821;59.134;37.894;2023-06-14T10:34:27;100412.13;;;29.01;27.00
67517;BME280;68821;59.134;37.894;2023-06-14T10:37:05;100398.88;;;29.17;26.62
67517;BME280;68821;59.134;37.894;2023-06-14T10:39:45;100406.47;;;29.07;26.55
67517;BME280;68821;59.134;37.894;2023-06-14T10:42:12;100399.63;;;28.89;27.09
67517;BME280;68821;59.134;37.894;2023-06-14T10:44:43;100401.88;;;28.81;27.12
67517;BME280;68821;59.134;37.894;2023-06-14T10:47:19;100402.84;;;28.80;26.92
67517;BME280;68821;59.134;37.894;2023-06-14T10:52:24;100402.91;;;28.78;27.05
67517;BME280;68821;59.134;37.894;2023-06-14T10:55:01;100412.00;;;28.58;26.82
67517;BME280;68821;59.134;37.894;2023-06-14T10:57:27;100403.50;;;28.37;26.87
67517;BME280;68821;59.134;37.894;2023-06-14T10:59:54;100399.88;;;28.38;27.13
67517;BME280;68821;59.134;37.894;2023-06-14T11:02:46;100392.97;;;28.67;26.63
67517;BME280;68821;59.134;37.894;2023-06-14T11:05:25;100394.88;;;29.24;26.54
67517;BME280;68821;59.134;37.894;2023-06-14T11:10:51;100388.03;;;33.21;23.65
67517;BME280;68821;59.134;37.894;2023-06-14T11:13:19;100388.47;;;35.33;22.01
67517;BME280;68821;59.134;37.894;2023-06-14T11:15:47;100378.47;;;37.21;20.67
67517;BME280;68821;59.134;37.894;2023-06-14T11:18:16;100393.44;;;38.43;19.68
67517;BME280;68821;59.134;37.894;2023-06-14T11:20:42;100392.00;;;39.19;18.99
67517;BME280;68821;59.134;37.894;2023-06-14T11:23:08;100393.03;;;39.52;18.70
67517;BME280;68821;59.134;37.894;2023-06-14T11:25:34;100389.81;;;39.99;18.32
67517;BME280;68821;59.134;37.894;2023-06-14T11:28:00;100382.13;;;39.62;18.35
67517;BME280;68821;59.134;37.894;2023-06-14T11:30:26;100373.41;;;40.35;18.10
67517;BME280;68821;59.134;37.894;2023-06-14T11:32:54;100375.50;;;41.22;17.31
67517;BME280;68821;59.134;37.894;2023-06-14T11:35:24;100377.47;;;39.80;17.64
67517;BME280;68821;59.134;37.894;2023-06-14T11:37:57;100380.38;;;37.76;18.27
67517;BME280;68821;59.134;37.894;2023-06-14T11:40:25;100375.88;;;36.04;19.47
67517;BME280;68821;59.134;37.894;2023-06-14T11:43:02;100381.53;;;35.09;20.29
67517;BME280;68821;59.134;37.894;2023-06-14T11:45:29;100364.91;;;36.17;19.69
67517;BME280;68821;59.134;37.894;2023-06-14T11:47:56;100368.41;;;37.33;18.63
67517;BME280;68821;59.134;37.894;2023-06-14T11:50:22;100374.09;;;36.63;18.91
67517;BME280;68821;59.134;37.894;2023-06-14T11:52:53;100374.78;;;35.26;18.91
67517;BME280;68821;59.134;37.894;2023-06-14T11:55:20;100377.56;;;33.97;20.26
67517;BME280;68821;59.134;37.894;2023-06-14T11:57:46;100385.41;;;32.97;21.22
67517;BME280;68821;59.134;37.894;2023-06-14T12:00:13;100370.38;;;32.01;22.01
67517;BME280;68821;59.134;37.894;2023-06-14T12:02:51;100366.78;;;32.02;22.19
67517;BME280;68821;59.134;37.894;2023-06-14T12:05:20;100362.09;;;34.12;21.06
67517;BME280;68821;59.134;37.894;2023-06-14T12:07:47;100354.06;;;36.68;19.63
67517;BME280;68821;59.134;37.894;2023-06-14T12:10:14;100355.38;;;39.18;17.94
67517;BME280;68821;59.134;37.894;2023-06-14T12:12:41;100354.69;;;41.31;16.60
67517;BME280;68821;59.134;37.894;2023-06-14T12:15:09;100353.91;;;43.07;15.70
67517;BME280;68821;59.134;37.894;2023-06-14T12:17:38;100350.81;;;44.62;14.71
67517;BME280;68821;59.134;37.894;2023-06-14T12:20:12;100350.34;;;45.76;14.24
67517;BME280;68821;59.134;37.894;2023-06-14T12:25:35;100363.13;;;46.96;13.12
67517;BME280;68821;59.134;37.894;2023-06-14T12:28:09;100353.53;;;46.73;13.13
67517;BME280;68821;59.134;37.894;2023-06-14T12:30:37;100350.16;;;46.78;12.73
67517;BME280;68821;59.134;37.894;2023-06-14T12:33:04;100347.69;;;46.83;12.35
67517;BME280;68821;59.134;37.894;2023-06-14T12:35:30;100352.19;;;47.03;12.83
67517;BME280;68821;59.134;37.894;2023-06-14T12:37:56;100351.97;;;47.11;12.30
67517;BME280;68821;59.134;37.894;2023-06-14T12:40:23;100341.97;;;47.50;12.08
67517;BME280;68821;59.134;37.894;2023-06-14T12:42:49;100334.75;;;48.01;12.03
67517;BME280;68821;59.134;37.894;2023-06-14T12:45:15;100336.03;;;48.23;11.88
67517;BME280;68821;59.134;37.894;2023-06-14T12:47:41;100329.56;;;48.43;11.38
67517;BME280;68821;59.134;37.894;2023-06-14T12:50:08;100322.09;;;48.57;11.32
67517;BME280;68821;59.134;37.894;2023-06-14T12:52:34;100328.06;;;49.09;11.59
67517;BME280;68821;59.134;37.894;2023-06-14T12:55:05;100328.94;;;49.40;10.54